Brunswick Golden Isles Airport Brunswick US
ICAO: KBQK
IATA: BQK
Category: Medium
Scheduled Services: Yes

Elevation: 26 ft
TransAlt. 18000 ft.

Airport Communications:
AWOS 3:124.175
CLNC DEL:126.75
JACKSONVILLE CNTR:126.75
MACON RDO:122.2
CTAF/UNICOM:122.8

KBQK Zoom In..

Runways:

(A) RW 07 length 8001 ft width 150 ft
ILS 108.50 / hdg 69

(B) RW 25 length 8001 ft width 150 ft
---- / hdg 249

Location; KBQK
Day. 20 / Time. 20.15 Zulu
* Altimeter: 29.92
* Temperature: 25° c. 77°f.
* Wind from: 000° Speed 00 kn.
Dewpoint: 22° c.
Visibility: 7 Statute Miles.
Clouds: Scattered 1600 ft.
Clouds: Broken 7000 ft.
Clouds: Overcast 9000 ft.

KBQK 202015Z AUTO 00000KT 7SM -VCTSRA SCT016 BKN070 OVC090 25/22 A2992 RMK AO2 LTG DSNT ALQS


Wind - Calm.

 
 
jpsmedia.com for Web Design worldairports.se 2018   terms of use